Time;durP1;ratioP1;P1;durP2;ratioP2;P2;SDS_P1;SDS_P2;PMS_P1;PMS_P2;Temp;Humidity;BMP_temperature;BMP_pressure;BME280_temperature;BME280_humidity;BME280_pressure;Samples;Min_cycle;Max_cycle;Signal;HPM_P1;HPM_P2
2023/12/01 00:02:20;;;;;;;41.42;20.98;;;1.50;99.90;;;;;;5036286;28;20042;-62
2023/12/01 00:04:47;;;;;;;37.70;19.27;;;1.50;99.90;;;;;;5034128;28;20072;-61
2023/12/01 00:07:14;;;;;;;40.08;19.48;;;1.50;99.90;;;;;;5031881;28;20494;-61
2023/12/01 00:09:41;;;;;;;42.25;19.83;;;1.50;99.90;;;;;;5035055;28;20052;-61
2023/12/01 00:12:08;;;;;;;;;;;1.60;99.90;;;;;;5035596;28;20441;-61
2023/12/01 00:14:35;;;;;;;36.58;19.15;;;1.50;99.90;;;;;;5040844;28;19921;-61
2023/12/01 00:17:02;;;;;;;37.13;19.90;;;1.60;99.90;;;;;;5038917;28;20505;-61
2023/12/01 00:19:29;;;;;;;36.50;20.38;;;1.60;99.90;;;;;;5022653;28;20044;-61
2023/12/01 00:21:56;;;;;;;36.92;18.58;;;1.60;99.90;;;;;;5032374;28;20095;-62
2023/12/01 00:24:23;;;;;;;37.55;19.23;;;1.60;99.90;;;;;;5041071;28;20501;-61
2023/12/01 00:26:50;;;;;;;30.23;14.07;;;1.60;99.90;;;;;;5024231;28;20516;-62
2023/12/01 00:29:17;;;;;;;35.50;19.08;;;1.60;99.90;;;;;;5031356;28;20041;-61
2023/12/01 00:31:44;;;;;;;32.42;18.10;;;1.70;99.90;;;;;;4999827;28;20057;-62
2023/12/01 00:34:11;;;;;;;30.42;14.07;;;1.60;99.90;;;;;;5042787;28;20051;-61
2023/12/01 00:36:37;;;;;;;41.47;20.48;;;1.60;99.90;;;;;;5016002;28;20457;-62
2023/12/01 00:39:06;;;;;;;40.75;19.73;;;1.60;99.90;;;;;;5021880;28;20103;-62
2023/12/01 00:41:33;;;;;;;37.08;19.92;;;1.60;99.90;;;;;;5025579;28;20554;-61
2023/12/01 00:44:00;;;;;;;36.38;20.05;;;1.70;99.90;;;;;;5006553;28;20060;-60
2023/12/01 00:46:26;;;;;;;35.28;19.05;;;1.70;99.90;;;;;;5039580;28;20051;-61
2023/12/01 00:48:53;;;;;;;28.73;17.15;;;1.60;99.90;;;;;;5022298;28;20172;-61
2023/12/01 00:51:20;;;;;;;30.23;18.13;;;1.60;99.90;;;;;;5007617;28;20073;-62
2023/12/01 00:53:47;;;;;;;34.22;17.92;;;1.60;99.90;;;;;;5022310;28;20425;-58
2023/12/01 00:56:15;;;;;;;34.53;18.73;;;1.60;99.90;;;;;;5032990;28;20095;-60
2023/12/01 00:58:42;;;;;;;34.63;18.10;;;1.60;99.90;;;;;;5044180;28;20041;-61
2023/12/01 01:01:09;;;;;;;34.25;17.75;;;1.60;99.90;;;;;;5025051;28;20045;-60
2023/12/01 01:03:36;;;;;;;32.92;18.75;;;1.60;99.90;;;;;;5045983;28;20367;-60
2023/12/01 01:06:03;;;;;;;33.80;18.40;;;1.60;99.90;;;;;;5018753;28;20136;-61
2023/12/01 01:08:30;;;;;;;;;;;1.60;99.90;;;;;;5024770;28;20136;-58
2023/12/01 01:10:57;;;;;;;35.40;19.02;;;1.60;99.90;;;;;;5022226;28;19921;-61
2023/12/01 01:13:27;;;;;;;37.88;19.20;;;1.60;99.90;;;;;;5028618;28;20045;-60
2023/12/01 01:15:54;;;;;;;38.95;19.48;;;1.60;99.90;;;;;;5034438;28;20048;-61
2023/12/01 01:18:21;;;;;;;39.10;19.85;;;1.60;99.90;;;;;;5015037;28;20045;-61
2023/12/01 01:20:48;;;;;;;;;;;1.60;99.90;;;;;;5021492;28;20498;-61
2023/12/01 01:23:16;;;;;;;36.92;19.13;;;1.60;99.90;;;;;;5033523;28;19921;-61
2023/12/01 01:25:43;;;;;;;45.55;21.38;;;1.70;99.90;;;;;;5028323;28;20487;-61
2023/12/01 01:28:09;;;;;;;35.13;19.30;;;1.70;99.90;;;;;;5003867;28;20517;-61
2023/12/01 01:30:36;;;;;;;39.05;20.52;;;1.70;99.90;;;;;;5013047;28;20042;-61
2023/12/01 01:33:03;;;;;;;43.30;20.83;;;1.70;99.90;;;;;;5038645;28;20033;-62
2023/12/01 01:35:31;;;;;;;40.90;21.92;;;1.70;99.90;;;;;;5010697;28;20037;-61
2023/12/01 01:37:58;;;;;;;37.13;18.92;;;1.70;99.90;;;;;;5022845;28;20088;-61
2023/12/01 01:40:25;;;;;;;35.70;19.80;;;1.60;99.90;;;;;;5016959;28;20053;-61
2023/12/01 01:42:51;;;;;;;42.30;20.77;;;1.70;99.90;;;;;;5017872;28;20045;-62
2023/12/01 01:45:18;;;;;;;42.92;21.42;;;1.70;99.90;;;;;;5017428;28;20060;-60
2023/12/01 01:47:46;;;;;;;47.75;21.95;;;1.70;99.90;;;;;;5031691;28;20120;-60
2023/12/01 01:50:13;;;;;;;40.03;20.83;;;1.70;99.90;;;;;;5032268;28;20059;-62
2023/12/01 01:52:41;;;;;;;42.28;22.40;;;1.70;99.90;;;;;;5019906;28;20049;-61
2023/12/01 01:55:10;;;;;;;42.70;22.48;;;1.70;99.90;;;;;;5013652;28;20073;-61
2023/12/01 01:57:39;;;;;;;41.50;22.02;;;1.70;99.90;;;;;;5017866;28;20037;-62
2023/12/01 02:00:06;;;;;;;41.90;22.27;;;1.70;99.90;;;;;;5005650;28;20069;-61
2023/12/01 02:02:39;;;;;;;40.22;21.23;;;1.70;99.90;;;;;;5024709;28;20038;-61
2023/12/01 02:05:12;;;;;;;44.53;22.23;;;1.70;99.90;;;;;;5028737;28;20076;-61
2023/12/01 02:07:41;;;;;;;42.95;22.92;;;1.70;99.90;;;;;;5039073;28;20041;-61
2023/12/01 02:10:17;;;;;;;42.00;21.83;;;1.70;99.90;;;;;;5040289;28;20412;-61
2023/12/01 02:12:44;;;;;;;40.85;21.30;;;1.70;99.90;;;;;;5019807;28;20053;-62
2023/12/01 02:15:12;;;;;;;44.47;23.08;;;1.60;99.90;;;;;;5033808;28;20048;-61
2023/12/01 02:17:40;;;;;;;41.28;22.50;;;1.60;99.90;;;;;;5033533;28;20037;-62
2023/12/01 02:20:07;;;;;;;;;;;1.60;99.90;;;;;;5016452;28;20120;-62
2023/12/01 02:22:43;;;;;;;42.78;20.80;;;1.60;99.90;;;;;;5031490;28;19921;-61
2023/12/01 02:25:10;;;;;;;40.70;22.15;;;1.60;99.90;;;;;;5013394;28;20498;-60
2023/12/01 02:27:37;;;;;;;40.53;21.10;;;1.70;99.90;;;;;;5033525;28;20083;-62
2023/12/01 02:30:04;;;;;;;40.15;21.27;;;1.70;99.90;;;;;;5019900;28;20053;-61
2023/12/01 02:32:31;;;;;;;39.17;21.60;;;1.80;99.90;;;;;;5043312;28;20041;-61
2023/12/01 02:34:57;;;;;;;40.80;22.08;;;1.80;99.90;;;;;;5013081;28;20073;-61
2023/12/01 02:37:24;;;;;;;30.75;15.93;;;1.80;99.90;;;;;;5018897;28;20053;-61
2023/12/01 02:39:51;;;;;;;39.00;21.27;;;1.80;99.90;;;;;;5016607;28;20044;-61
2023/12/01 02:42:18;;;;;;;41.67;21.25;;;1.70;99.90;;;;;;5020090;28;20046;-60
2023/12/01 02:44:45;;;;;;;29.35;16.40;;;1.80;99.90;;;;;;5032783;28;20049;-60
2023/12/01 02:47:11;;;;;;;37.25;18.55;;;1.80;99.90;;;;;;5011723;28;20064;-60
2023/12/01 02:49:38;;;;;;;39.65;22.15;;;1.70;99.90;;;;;;5012899;28;20041;-61
2023/12/01 02:52:05;;;;;;;40.03;20.30;;;1.60;99.90;;;;;;5020385;28;20529;-62
2023/12/01 02:54:32;;;;;;;45.55;23.10;;;1.60;99.90;;;;;;5020598;28;20399;-61
2023/12/01 02:56:59;;;;;;;46.47;21.58;;;1.60;99.90;;;;;;5004401;28;20108;-61
2023/12/01 02:59:25;;;;;;;38.72;21.63;;;1.70;99.90;;;;;;5020143;28;20041;-61
2023/12/01 03:01:52;;;;;;;41.95;21.48;;;1.70;99.90;;;;;;5015420;28;20380;-61
2023/12/01 03:04:19;;;;;;;47.75;22.55;;;1.70;99.90;;;;;;5022074;28;20682;-61
2023/12/01 03:06:46;;;;;;;49.80;23.25;;;1.70;99.90;;;;;;5017577;28;20064;-61
2023/12/01 03:09:16;;;;;;;34.70;16.83;;;1.70;99.90;;;;;;5035966;28;20072;-61
2023/12/01 03:11:46;;;;;;;50.53;24.27;;;1.70;99.90;;;;;;5043638;28;20102;-61
2023/12/01 03:14:13;;;;;;;52.95;22.52;;;1.70;99.90;;;;;;5021235;28;20091;-62
2023/12/01 03:16:40;;;;;;;45.95;22.23;;;1.70;99.90;;;;;;5042571;28;20040;-61
2023/12/01 03:19:08;;;;;;;45.33;22.85;;;1.70;99.90;;;;;;5016090;28;20042;-62
2023/12/01 03:21:35;;;;;;;42.60;22.35;;;1.60;99.90;;;;;;5024471;28;20573;-60
2023/12/01 03:24:02;;;;;;;45.85;22.45;;;1.60;99.90;;;;;;5030820;28;20053;-61
2023/12/01 03:26:29;;;;;;;43.25;22.98;;;1.60;99.90;;;;;;5046243;28;20499;-61
2023/12/01 03:28:56;;;;;;;43.75;22.50;;;1.60;99.90;;;;;;5043030;28;20501;-60
2023/12/01 03:31:23;;;;;;;45.17;22.45;;;1.70;99.90;;;;;;5044355;28;20406;-61
2023/12/01 03:33:50;;;;;;;45.42;22.25;;;1.70;99.90;;;;;;5012536;28;20055;-60
2023/12/01 03:36:17;;;;;;;43.63;23.17;;;1.70;99.90;;;;;;5024001;28;20042;-61
2023/12/01 03:38:43;;;;;;;45.72;23.92;;;1.70;99.90;;;;;;5007941;28;20077;-61
2023/12/01 03:41:10;;;;;;;46.70;22.70;;;1.70;99.90;;;;;;5018349;28;20065;-62
2023/12/01 03:43:37;;;;;;;42.28;21.63;;;1.70;99.90;;;;;;5009377;28;20124;-62
2023/12/01 03:46:04;;;;;;;40.95;21.67;;;1.70;99.90;;;;;;5016427;28;20058;-61
2023/12/01 03:48:33;;;;;;;41.35;22.00;;;1.70;99.90;;;;;;5032323;28;20072;-62
2023/12/01 03:51:00;;;;;;;40.55;21.55;;;1.70;99.90;;;;;;5019750;28;20041;-61
2023/12/01 03:53:30;;;;;;;48.88;22.20;;;1.80;99.90;;;;;;5020479;28;20051;-62
2023/12/01 03:55:58;;;;;;;48.08;23.40;;;1.80;99.90;;;;;;5021054;28;20042;-61
2023/12/01 03:58:24;;;;;;;;;;;1.70;99.90;;;;;;5040206;28;20046;-61
2023/12/01 04:00:52;;;;;;;46.60;23.40;;;1.80;99.90;;;;;;5029469;28;19929;-62
2023/12/01 04:03:19;;;;;;;46.67;22.65;;;1.80;99.90;;;;;;5029569;28;20055;-61
2023/12/01 04:05:47;;;;;;;;;;;1.70;99.90;;;;;;5035089;28;20316;-61
2023/12/01 04:08:14;;;;;;;29.20;15.43;;;1.70;99.90;;;;;;5016425;28;20273;-62
2023/12/01 04:10:42;;;;;;;83.40;24.02;;;1.70;99.90;;;;;;5027551;28;20048;-61
2023/12/01 04:13:11;;;;;;;70.05;24.10;;;1.70;99.90;;;;;;5043716;28;20465;-62
2023/12/01 04:15:38;;;;;;;64.60;23.25;;;1.60;99.90;;;;;;5043836;28;20036;-62
2023/12/01 04:18:08;;;;;;;58.72;23.63;;;1.60;99.90;;;;;;5021934;28;20055;-61
2023/12/01 04:20:38;;;;;;;44.35;23.27;;;1.50;99.90;;;;;;5022076;28;20537;-61
2023/12/01 04:23:09;;;;;;;40.63;21.65;;;1.50;99.90;;;;;;5047889;28;20033;-61
2023/12/01 04:25:40;;;;;;;40.00;22.27;;;1.50;99.90;;;;;;5033868;28;20041;-60
2023/12/01 04:28:07;;;;;;;39.33;21.27;;;1.50;99.90;;;;;;5021017;28;20060;-62
2023/12/01 04:30:34;;;;;;;;;;;1.60;99.90;;;;;;5035048;28;20037;-61
2023/12/01 04:33:01;;;;;;;43.25;22.70;;;1.60;99.90;;;;;;5038962;28;20278;-62
2023/12/01 04:35:30;;;;;;;;;;;1.60;99.90;;;;;;5031899;28;20119;-61
2023/12/01 04:37:58;;;;;;;;;;;1.60;99.90;;;;;;5034164;28;20312;-62
2023/12/01 04:40:27;;;;;;;50.73;22.90;;;1.70;99.90;;;;;;5041023;28;19928;-62
2023/12/01 04:42:55;;;;;;;42.80;22.95;;;1.70;99.90;;;;;;5032906;28;20045;-62
2023/12/01 04:45:27;;;;;;;48.67;24.75;;;1.70;99.90;;;;;;5039866;28;20046;-62
2023/12/01 04:47:55;;;;;;;55.50;26.75;;;1.70;99.90;;;;;;5014271;28;20132;-62
2023/12/01 04:50:24;;;;;;;51.97;25.52;;;1.70;99.90;;;;;;5040390;28;20102;-62
2023/12/01 04:52:53;;;;;;;60.03;26.30;;;1.70;99.90;;;;;;5031871;28;20045;-62
2023/12/01 04:55:22;;;;;;;48.28;24.67;;;1.70;99.90;;;;;;5033686;28;20096;-62
2023/12/01 04:57:49;;;;;;;53.38;24.88;;;1.70;99.90;;;;;;5015416;28;20047;-62
2023/12/01 05:00:21;;;;;;;44.88;23.80;;;1.80;99.90;;;;;;5031836;28;20038;-61
2023/12/01 05:03:04;;;;;;;46.45;23.48;;;1.70;99.90;;;;;;5036349;28;20404;-62
2023/12/01 05:05:36;;;;;;;49.38;23.88;;;1.80;99.90;;;;;;5041886;28;20045;-62
2023/12/01 05:08:05;;;;;;;55.30;28.65;;;1.70;99.90;;;;;;5041757;28;20130;-62
2023/12/01 05:10:33;;;;;;;52.13;24.77;;;1.70;99.90;;;;;;5011597;28;20410;-61
2023/12/01 05:13:01;;;;;;;44.58;23.55;;;1.70;99.90;;;;;;5038054;28;20048;-62
2023/12/01 05:15:30;;;;;;;51.78;25.55;;;1.70;99.90;;;;;;5025650;28;20037;-62
2023/12/01 05:17:59;;;;;;;48.75;25.05;;;1.70;99.90;;;;;;5032879;28;20041;-62
2023/12/01 05:20:27;;;;;;;47.03;23.92;;;1.80;99.90;;;;;;5032961;28;20041;-62
2023/12/01 05:22:59;;;;;;;47.72;25.02;;;1.80;99.90;;;;;;5026098;28;20033;-62
2023/12/01 05:25:32;;;;;;;49.42;25.08;;;1.80;99.90;;;;;;5031629;28;20546;-61
2023/12/01 05:28:01;;;;;;;49.08;24.95;;;1.80;99.90;;;;;;5036818;28;20095;-62
2023/12/01 05:30:36;;;;;;;47.95;24.63;;;1.80;99.90;;;;;;5036348;28;20033;-62
2023/12/01 05:33:06;;;;;;;46.00;23.98;;;1.80;99.90;;;;;;5032307;28;20042;-61
2023/12/01 05:35:35;;;;;;;58.20;25.45;;;1.90;99.90;;;;;;5042221;28;20099;-61
2023/12/01 05:38:04;;;;;;;57.28;25.58;;;1.80;99.90;;;;;;5038471;28;20045;-62
2023/12/01 05:40:35;;;;;;;51.40;26.67;;;1.80;99.90;;;;;;5029681;28;20049;-62
2023/12/01 05:43:05;;;;;;;53.95;25.75;;;1.90;99.90;;;;;;5020979;28;20112;-62
2023/12/01 05:45:33;;;;;;;61.53;27.58;;;1.90;99.90;;;;;;5026829;28;20037;-62
2023/12/01 05:48:02;;;;;;;74.32;26.10;;;1.80;99.90;;;;;;5037757;28;20064;-60
2023/12/01 05:50:31;;;;;;;55.58;24.77;;;1.80;99.90;;;;;;5033577;28;20038;-60
2023/12/01 05:53:00;;;;;;;48.08;23.83;;;1.80;99.90;;;;;;5030738;28;20041;-62
2023/12/01 05:55:29;;;;;;;43.50;23.58;;;1.80;99.90;;;;;;5030873;28;20390;-62
2023/12/01 05:58:04;;;;;;;49.03;22.58;;;1.80;99.90;;;;;;5044309;28;20041;-62
2023/12/01 06:00:32;;;;;;;46.95;21.80;;;1.70;99.90;;;;;;5031444;28;20415;-61
2023/12/01 06:03:06;;;;;;;46.17;23.67;;;1.70;99.90;;;;;;5040069;28;20045;-62
2023/12/01 06:05:34;;;;;;;46.53;22.75;;;1.70;99.90;;;;;;5037490;28;20044;-61
2023/12/01 06:08:03;;;;;;;47.72;21.67;;;1.70;99.90;;;;;;5047218;28;20042;-62
2023/12/01 06:10:31;;;;;;;43.17;22.15;;;1.70;99.90;;;;;;5029427;28;20048;-60
2023/12/01 06:12:59;;;;;;;44.33;21.92;;;1.70;99.90;;;;;;5031145;28;20045;-59
2023/12/01 06:15:29;;;;;;;;;;;1.70;99.90;;;;;;5045090;28;20043;-61
2023/12/01 06:17:58;;;;;;;45.25;22.52;;;1.70;99.90;;;;;;5028651;28;19925;-61
2023/12/01 06:20:26;;;;;;;44.15;22.83;;;1.70;99.90;;;;;;5021060;28;20096;-61
2023/12/01 06:22:57;;;;;;;42.53;22.98;;;1.70;99.90;;;;;;5031898;28;20037;-59
2023/12/01 06:25:29;;;;;;;46.40;23.58;;;1.70;99.90;;;;;;5044409;28;20098;-59
2023/12/01 06:28:00;;;;;;;46.28;23.02;;;1.70;99.90;;;;;;5033396;28;20036;-60
2023/12/01 06:30:28;;;;;;;43.95;23.08;;;1.80;99.90;;;;;;5009012;28;20037;-62
2023/12/01 06:32:55;;;;;;;46.80;22.65;;;1.80;99.90;;;;;;5023772;28;20144;-62
2023/12/01 06:35:22;;;;;;;45.17;22.92;;;1.70;99.90;;;;;;5025728;28;20038;-60
2023/12/01 06:37:49;;;;;;;41.75;21.92;;;1.80;99.90;;;;;;5025297;28;20059;-60
2023/12/01 06:40:17;;;;;;;43.10;22.48;;;1.80;99.90;;;;;;5030719;28;20112;-61
2023/12/01 06:42:48;;;;;;;45.03;21.55;;;1.80;99.90;;;;;;5041033;28;20046;-62
2023/12/01 06:45:17;;;;;;;44.97;23.35;;;1.80;99.90;;;;;;5030742;28;20047;-61
2023/12/01 06:47:46;;;;;;;44.60;23.40;;;1.80;99.90;;;;;;5036427;28;20626;-62
2023/12/01 06:50:15;;;;;;;45.40;23.75;;;1.80;99.90;;;;;;5012504;28;20114;-61
2023/12/01 06:52:52;;;;;;;41.67;22.92;;;1.80;99.90;;;;;;5035841;28;20045;-61
2023/12/01 06:55:19;;;;;;;58.20;26.17;;;1.80;99.90;;;;;;5038030;28;20044;-61
2023/12/01 06:57:48;;;;;;;64.97;27.52;;;1.80;99.90;;;;;;5031415;28;20889;-61
2023/12/01 07:00:29;;;;;;;90.10;33.17;;;1.90;99.90;;;;;;5027582;28;20029;-62
2023/12/01 07:03:00;;;;;;;96.85;36.00;;;1.80;99.90;;;;;;5037668;28;20037;-62
2023/12/01 07:05:29;;;;;;;103.60;36.13;;;1.80;99.90;;;;;;5050599;28;20506;-62
2023/12/01 07:07:57;;;;;;;84.82;32.65;;;1.90;99.90;;;;;;5029365;28;20120;-60
2023/12/01 07:10:24;;;;;;;102.35;36.10;;;1.90;99.90;;;;;;5024754;28;20042;-62
2023/12/01 07:12:52;;;;;;;85.90;34.10;;;1.90;99.90;;;;;;5042032;28;20107;-61
2023/12/01 07:15:20;;;;;;;84.57;30.67;;;1.90;99.90;;;;;;5036501;28;20409;-61
2023/12/01 07:17:53;;;;;;;83.65;30.92;;;1.90;99.90;;;;;;5029407;28;20049;-62
2023/12/01 07:20:21;;;;;;;69.93;29.73;;;1.90;99.90;;;;;;5023166;28;20052;-61
2023/12/01 07:22:51;;;;;;;76.90;29.58;;;1.90;99.90;;;;;;5030725;28;20451;-61
2023/12/01 07:25:22;;;;;;;62.42;29.17;;;1.90;99.90;;;;;;5024115;28;20056;-61
2023/12/01 07:27:56;;;;;;;62.00;26.10;;;1.80;99.90;;;;;;5030889;28;20172;-61
2023/12/01 07:30:23;;;;;;;64.95;26.60;;;1.80;99.90;;;;;;5022509;28;20038;-61
2023/12/01 07:32:53;;;;;;;48.90;24.33;;;1.90;99.90;;;;;;5045071;28;20128;-60
2023/12/01 07:35:20;;;;;;;48.92;24.67;;;1.90;99.90;;;;;;5030900;28;20127;-61
2023/12/01 07:37:51;;;;;;;52.80;24.23;;;1.90;99.90;;;;;;5042348;28;20049;-61
2023/12/01 07:40:19;;;;;;;51.78;25.33;;;1.90;99.90;;;;;;5034796;28;20478;-61
2023/12/01 07:42:48;;;;;;;53.50;26.50;;;2.00;99.90;;;;;;5034978;28;20044;-61
2023/12/01 07:45:19;;;;;;;52.20;26.15;;;1.90;99.90;;;;;;5039855;28;20512;-61
2023/12/01 07:47:47;;;;;;;57.92;28.45;;;2.00;99.90;;;;;;5028062;28;20050;-61
2023/12/01 07:50:15;;;;;;;55.65;28.42;;;2.00;99.90;;;;;;5047604;28;20037;-61
2023/12/01 07:52:43;;;;;;;49.60;25.33;;;2.00;99.90;;;;;;5035698;28;20410;-61
2023/12/01 07:55:10;;;;;;;46.92;23.90;;;2.00;99.90;;;;;;5025834;28;20045;-61
2023/12/01 07:57:38;;;;;;;73.72;25.48;;;2.00;99.90;;;;;;5016505;28;20096;-62
2023/12/01 08:00:06;;;;;;;59.70;23.63;;;2.10;99.90;;;;;;5039836;28;20034;-61
2023/12/01 08:02:32;;;;;;;44.55;22.35;;;2.00;99.90;;;;;;5041701;28;20030;-61
2023/12/01 08:04:59;;;;;;;55.17;25.60;;;2.00;99.90;;;;;;5040627;28;20044;-61
2023/12/01 08:07:26;;;;;;;52.75;25.98;;;2.00;99.90;;;;;;5044292;28;20116;-61
2023/12/01 08:09:53;;;;;;;51.78;24.98;;;2.00;99.90;;;;;;5031343;28;20647;-61
2023/12/01 08:12:24;;;;;;;47.63;23.92;;;1.90;99.90;;;;;;5048449;28;20041;-60
2023/12/01 08:14:51;;;;;;;44.65;25.15;;;1.90;99.90;;;;;;5043913;28;20119;-62
2023/12/01 08:17:18;;;;;;;50.97;24.63;;;2.00;99.90;;;;;;5039356;28;20051;-60
2023/12/01 08:19:45;;;;;;;57.95;29.05;;;2.10;99.90;;;;;;5039656;28;20048;-61
2023/12/01 08:22:11;;;;;;;61.65;28.10;;;2.10;99.90;;;;;;5034511;28;20046;-61
2023/12/01 08:24:38;;;;;;;55.13;28.08;;;2.20;99.90;;;;;;5041300;28;20037;-61
2023/12/01 08:27:08;;;;;;;55.13;27.23;;;2.20;99.90;;;;;;5042928;28;20045;-61
2023/12/01 08:29:36;;;;;;;57.30;28.50;;;2.30;99.90;;;;;;5045077;28;20080;-61
2023/12/01 08:32:03;;;;;;;53.75;27.75;;;2.30;99.90;;;;;;5027486;28;20087;-61
2023/12/01 08:34:30;;;;;;;60.95;30.65;;;2.30;99.90;;;;;;5053299;28;20045;-61
2023/12/01 08:36:57;;;;;;;66.75;30.75;;;2.30;99.90;;;;;;5032221;28;20049;-61
2023/12/01 08:39:24;;;;;;;57.97;28.48;;;2.30;99.90;;;;;;5053034;28;20029;-61
2023/12/01 08:41:56;;;;;;;53.78;26.58;;;2.30;99.90;;;;;;5039286;28;20033;-61
2023/12/01 08:44:23;;;;;;;53.40;27.20;;;2.30;99.90;;;;;;5014397;28;20041;-60
2023/12/01 08:46:50;;;;;;;49.38;24.42;;;2.30;99.90;;;;;;5041554;28;20042;-62
2023/12/01 08:49:17;;;;;;;34.95;18.67;;;2.40;99.90;;;;;;5022651;28;20048;-60
2023/12/01 08:51:43;;;;;;;53.42;26.42;;;2.40;99.90;;;;;;5033486;28;20045;-61
2023/12/01 08:54:10;;;;;;;45.38;23.60;;;2.40;99.90;;;;;;5039298;28;20046;-60
2023/12/01 08:56:38;;;;;;;51.58;26.10;;;2.40;99.90;;;;;;5028804;28;20037;-61
2023/12/01 08:59:04;;;;;;;47.78;26.98;;;2.40;99.90;;;;;;5024258;28;20052;-62
2023/12/01 09:01:31;;;;;;;46.25;24.52;;;2.50;99.90;;;;;;5032092;28;20072;-60
2023/12/01 09:03:58;;;;;;;62.53;30.23;;;2.50;99.90;;;;;;5037721;28;20049;-60
2023/12/01 09:06:25;;;;;;;62.85;30.30;;;2.50;99.90;;;;;;5037289;28;20494;-61
2023/12/01 09:08:52;;;;;;;56.53;30.08;;;2.50;99.90;;;;;;5032972;28;20521;-61
2023/12/01 09:11:19;;;;;;;65.80;33.05;;;2.50;99.90;;;;;;5027074;28;20045;-61
2023/12/01 09:13:46;;;;;;;60.10;28.67;;;2.40;99.90;;;;;;5048934;28;20418;-61
2023/12/01 09:16:12;;;;;;;49.35;25.15;;;2.40;99.90;;;;;;5039172;28;20095;-60
2023/12/01 09:18:39;;;;;;;50.88;27.38;;;2.40;99.90;;;;;;5030792;28;20278;-60
2023/12/01 09:21:06;;;;;;;50.78;25.92;;;2.40;99.90;;;;;;5034473;28;20034;-60
2023/12/01 09:23:33;;;;;;;40.50;22.65;;;2.40;99.90;;;;;;5047168;28;20041;-61
2023/12/01 09:26:00;;;;;;;71.50;24.48;;;2.50;99.90;;;;;;5026561;28;20052;-61
2023/12/01 09:28:27;;;;;;;72.78;20.42;;;2.40;99.90;;;;;;5046717;28;20397;-61
2023/12/01 09:30:54;;;;;;;55.58;26.73;;;2.30;99.90;;;;;;5035803;28;20045;-61
2023/12/01 09:33:21;;;;;;;45.08;23.60;;;2.40;99.90;;;;;;5038811;28;20045;-61
2023/12/01 09:35:48;;;;;;;42.58;23.55;;;2.40;99.90;;;;;;5027993;28;20088;-60
2023/12/01 09:38:25;;;;;;;49.57;24.40;;;2.40;99.90;;;;;;5041605;28;20037;-61
2023/12/01 09:40:52;;;;;;;39.50;21.40;;;2.40;99.90;;;;;;5032552;28;20713;-61
2023/12/01 09:43:19;;;;;;;76.30;36.97;;;2.40;99.90;;;;;;5038978;28;20038;-61
2023/12/01 09:45:46;;;;;;;36.55;19.17;;;2.40;99.90;;;;;;5010405;28;20053;-62
2023/12/01 09:48:17;;;;;;;30.05;16.63;;;2.50;99.90;;;;;;5042656;28;20041;-61
2023/12/01 09:50:44;;;;;;;39.38;17.83;;;2.50;99.90;;;;;;5050698;28;20052;-61
2023/12/01 09:53:11;;;;;;;33.28;16.40;;;2.50;99.90;;;;;;5022450;28;20137;-60
2023/12/01 09:55:38;;;;;;;34.70;18.25;;;2.60;99.90;;;;;;5042765;28;20080;-61
2023/12/01 09:58:05;;;;;;;37.78;20.38;;;2.60;99.90;;;;;;5034834;28;20478;-61
2023/12/01 10:00:32;;;;;;;35.55;19.55;;;2.60;99.90;;;;;;5041464;28;20033;-61
2023/12/01 10:02:58;;;;;;;33.17;16.80;;;2.60;99.90;;;;;;5024357;28;20048;-61
2023/12/01 10:05:25;;;;;;;48.05;25.45;;;2.70;99.90;;;;;;5045928;28;20037;-61
2023/12/01 10:07:52;;;;;;;52.85;26.65;;;2.70;99.90;;;;;;5040585;28;20091;-61
2023/12/01 10:10:25;;;;;;;63.05;32.53;;;2.80;99.90;;;;;;5044358;28;20063;-61
2023/12/01 10:12:58;;;;;;;60.65;31.95;;;2.90;99.90;;;;;;5042902;28;20460;-61
2023/12/01 10:15:26;;;;;;;66.78;33.47;;;3.00;99.90;;;;;;5042176;28;20037;-61
2023/12/01 10:18:06;;;;;;;67.03;36.35;;;3.00;99.90;;;;;;5025568;28;20034;-61
2023/12/01 10:20:33;;;;;;;61.03;23.02;;;3.00;99.90;;;;;;5038947;28;20494;-61
2023/12/01 10:23:02;;;;;;;38.78;18.50;;;3.00;99.90;;;;;;5019163;28;20470;-61
2023/12/01 10:25:29;;;;;;;47.30;20.25;;;2.90;99.90;;;;;;5027835;28;20049;-61
2023/12/01 10:27:56;;;;;;;38.03;17.70;;;2.90;99.90;;;;;;5036455;28;20041;-61
2023/12/01 10:30:23;;;;;;;55.33;19.40;;;2.90;99.90;;;;;;5040402;28;20106;-61
2023/12/01 10:32:52;;;;;;;100.30;20.58;;;3.00;99.90;;;;;;5028346;28;20502;-61
2023/12/01 10:35:19;;;;;;;42.05;20.98;;;2.90;99.90;;;;;;5043331;28;20033;-61
2023/12/01 10:37:47;;;;;;;121.78;22.98;;;2.90;99.90;;;;;;5031750;28;20044;-62
2023/12/01 10:40:16;;;;;;;105.53;24.30;;;3.00;99.90;;;;;;5032280;28;20508;-62
2023/12/01 10:42:47;;;;;;;116.68;23.50;;;3.00;99.90;;;;;;5028547;28;20041;-61
2023/12/01 10:45:14;;;;;;;34.72;18.38;;;2.90;99.90;;;;;;5047054;28;20044;-62
2023/12/01 10:47:44;;;;;;;77.38;18.20;;;2.90;99.90;;;;;;5038904;28;20045;-60
2023/12/01 10:50:12;;;;;;;74.53;18.67;;;2.90;99.90;;;;;;5041222;28;20056;-59
2023/12/01 10:52:41;;;;;;;47.35;19.00;;;2.90;99.90;;;;;;5026418;28;20429;-61
2023/12/01 10:55:08;;;;;;;67.00;19.90;;;2.90;99.90;;;;;;5039299;28;20116;-60
2023/12/01 10:57:42;;;;;;;35.50;18.33;;;3.00;99.90;;;;;;5027065;28;20037;-61
2023/12/01 11:00:19;;;;;;;40.03;18.92;;;3.10;99.90;;;;;;5036331;28;20103;-60
2023/12/01 11:02:48;;;;;;;;;;;3.20;99.90;;;;;;5020691;28;20065;-61
2023/12/01 11:05:16;;;;;;;50.58;25.25;;;3.20;99.90;;;;;;5041118;28;20386;-60
2023/12/01 11:08:06;;;;;;;58.28;29.75;;;3.30;99.90;;;;;;5047738;28;20069;-60
2023/12/01 11:11:22;;;;;;;59.63;31.02;;;3.30;99.90;;;;;;5031851;28;20413;-61
2023/12/01 11:14:19;;;;;;;78.93;26.58;;;3.30;99.90;;;;;;4942358;28;20063;-61
2023/12/01 11:16:49;;;;;;;58.25;24.35;;;3.20;99.90;;;;;;5024841;28;20050;-61
2023/12/01 11:19:18;;;;;;;51.88;25.98;;;3.20;99.90;;;;;;5030096;28;20044;-60
2023/12/01 11:21:49;;;;;;;55.20;26.58;;;3.20;99.90;;;;;;5026343;28;20095;-61
2023/12/01 11:24:26;;;;;;;49.00;24.58;;;3.20;99.90;;;;;;5046356;28;20065;-62
2023/12/01 11:26:55;;;;;;;52.07;25.70;;;3.20;99.90;;;;;;5041009;28;20041;-62
2023/12/01 11:29:36;;;;;;;60.88;27.52;;;3.20;99.90;;;;;;5031641;28;20637;-60
2023/12/01 11:32:04;;;;;;;60.50;30.25;;;3.20;99.90;;;;;;5028957;28;20475;-61
2023/12/01 11:34:31;;;;;;;70.07;32.25;;;3.10;99.90;;;;;;5035531;28;20068;-62
2023/12/01 11:37:01;;;;;;;400.33;49.28;;;3.10;99.90;;;;;;5030531;28;20076;-61
2023/12/01 11:39:31;;;;;;;73.53;28.15;;;3.10;99.90;;;;;;5043738;28;20061;-60
2023/12/01 11:41:58;;;;;;;77.57;27.40;;;3.00;99.90;;;;;;5028128;28;20045;-61
2023/12/01 11:44:34;;;;;;;50.13;25.75;;;3.00;99.90;;;;;;5025074;28;20037;-61
2023/12/01 11:47:04;;;;;;;55.00;27.30;;;3.00;99.90;;;;;;5038198;28;20126;-61
2023/12/01 11:49:39;;;;;;;60.83;30.80;;;3.10;99.90;;;;;;5034624;28;20040;-61
2023/12/01 11:52:12;;;;;;;103.10;32.45;;;3.10;99.90;;;;;;5049605;28;20107;-61
2023/12/01 11:54:40;;;;;;;166.77;37.15;;;3.10;99.90;;;;;;5021589;28;20124;-60
2023/12/01 11:57:18;;;;;;;331.88;44.80;;;3.10;99.90;;;;;;5038036;28;20132;-61
2023/12/01 11:59:47;;;;;;;114.70;32.42;;;3.00;99.90;;;;;;5045121;28;20061;-61
2023/12/01 12:02:17;;;;;;;346.63;45.65;;;3.00;99.90;;;;;;5025391;28;20123;-61
2023/12/01 12:04:46;;;;;;;172.98;32.25;;;3.00;99.90;;;;;;5036352;28;20045;-61
2023/12/01 12:07:16;;;;;;;153.32;31.65;;;2.90;99.90;;;;;;5028429;28;20084;-61
2023/12/01 12:09:44;;;;;;;153.23;30.00;;;2.80;99.90;;;;;;5031191;28;20540;-62
2023/12/01 12:12:13;;;;;;;127.43;32.30;;;2.90;99.90;;;;;;5034229;28;20107;-61
2023/12/01 12:14:41;;;;;;;85.72;30.88;;;2.90;99.90;;;;;;5016752;28;20079;-62
2023/12/01 12:17:09;;;;;;;141.80;31.25;;;2.80;99.90;;;;;;5039569;28;20049;-62
2023/12/01 12:19:40;;;;;;;;;;;2.80;99.90;;;;;;5035433;28;20099;-62
2023/12/01 12:22:07;;;;;;;57.70;24.55;;;2.80;99.90;;;;;;5035438;28;19920;-62
2023/12/01 12:24:34;;;;;;;56.20;25.27;;;2.90;99.90;;;;;;5033500;28;20093;-62
2023/12/01 12:27:01;;;;;;;52.45;25.13;;;2.90;99.90;;;;;;5037135;28;20451;-62
2023/12/01 12:29:28;;;;;;;46.60;25.20;;;2.90;99.90;;;;;;5033861;28;20041;-62
2023/12/01 12:31:56;;;;;;;56.55;26.17;;;2.90;99.90;;;;;;5031887;28;20490;-62
2023/12/01 12:34:23;;;;;;;46.42;24.02;;;2.90;99.90;;;;;;5041207;28;20041;-62
2023/12/01 12:36:52;;;;;;;50.90;25.55;;;2.90;99.90;;;;;;5048580;28;20037;-62
2023/12/01 12:39:23;;;;;;;58.28;24.30;;;2.90;99.90;;;;;;5026466;28;20045;-61
2023/12/01 12:41:57;;;;;;;57.13;23.95;;;2.90;99.90;;;;;;5035695;28;20040;-62
2023/12/01 12:44:25;;;;;;;42.22;21.00;;;2.90;99.90;;;;;;5033577;28;20037;-61
2023/12/01 12:47:02;;;;;;;262.10;33.47;;;2.90;99.90;;;;;;5024079;28;20052;-62
2023/12/01 12:49:33;;;;;;;49.92;21.50;;;2.90;99.90;;;;;;5033437;28;20042;-62